createdAt,value
2019-03-27T00:01:08.392Z,100.00
2019-03-27T00:06:11.091Z,100.00
2019-03-27T00:11:16.243Z,100.00
2019-03-27T00:16:19.644Z,100.00
2019-03-27T00:21:23.187Z,100.00
2019-03-27T00:26:28.729Z,100.00
2019-03-27T00:31:33.118Z,100.00
2019-03-27T00:36:39.105Z,100.00
2019-03-27T00:41:41.762Z,100.00
2019-03-27T00:46:44.665Z,100.00
2019-03-27T00:51:47.231Z,100.00
2019-03-27T00:56:49.912Z,100.00
2019-03-27T01:01:52.743Z,100.00
2019-03-27T01:06:58.482Z,100.00
2019-03-27T01:12:01.088Z,100.00
2019-03-27T01:17:06.655Z,100.00
2019-03-27T01:22:09.201Z,100.00
2019-03-27T01:27:11.798Z,100.00
2019-03-27T01:32:18.901Z,100.00
2019-03-27T01:37:21.603Z,100.00
2019-03-27T01:42:24.170Z,100.00
2019-03-27T01:47:29.773Z,100.00
2019-03-27T01:52:37.869Z,100.00
2019-03-27T01:57:42.690Z,100.00
2019-03-27T02:02:47.995Z,100.00
2019-03-27T02:07:50.583Z,100.00
2019-03-27T02:12:58.365Z,100.00
2019-03-27T02:18:00.954Z,100.00
2019-03-27T02:23:03.553Z,100.00
2019-03-27T02:28:06.174Z,100.00
2019-03-27T02:33:08.995Z,100.00
2019-03-27T02:38:11.559Z,100.00
2019-03-27T02:43:14.105Z,100.00
2019-03-27T02:48:16.672Z,100.00
2019-03-27T02:53:19.377Z,100.00
2019-03-27T02:58:21.972Z,100.00
2019-03-27T03:03:26.935Z,100.00
2019-03-27T03:08:29.556Z,100.00
2019-03-27T03:13:32.236Z,100.00
2019-03-27T03:18:39.578Z,100.00
2019-03-27T03:23:42.331Z,100.00
2019-03-27T03:28:47.940Z,100.00
2019-03-27T03:33:50.622Z,100.00
2019-03-27T03:38:53.161Z,100.00
2019-03-27T03:43:55.785Z,100.00
2019-03-27T03:48:58.382Z,100.00
2019-03-27T03:54:01.687Z,100.00
2019-03-27T03:59:05.160Z,100.00
2019-03-27T04:04:09.312Z,100.00
2019-03-27T04:09:13.079Z,100.00
2019-03-27T04:14:15.674Z,100.00
2019-03-27T04:19:20.806Z,100.00
2019-03-27T04:24:26.352Z,100.00
2019-03-27T04:29:30.088Z,100.00
2019-03-27T04:34:35.891Z,100.00
2019-03-27T04:39:38.437Z,100.00
2019-03-27T04:44:43.712Z,100.00
2019-03-27T04:49:46.249Z,100.00
2019-03-27T04:54:49.004Z,100.00
2019-03-27T04:59:51.590Z,100.00
2019-03-27T05:04:56.568Z,100.00
2019-03-27T05:09:59.163Z,100.00
2019-03-27T05:15:01.962Z,100.00
2019-03-27T05:20:06.018Z,100.00
2019-03-27T05:25:09.089Z,100.00
2019-03-27T05:30:13.463Z,100.00
2019-03-27T05:35:17.752Z,100.00
2019-03-27T05:40:20.323Z,100.00
2019-03-27T05:45:23.206Z,100.00
2019-03-27T05:50:25.773Z,100.00
2019-03-27T05:55:28.479Z,100.00
2019-03-27T06:00:33.415Z,100.00
2019-03-27T06:05:35.783Z,100.00
2019-03-27T06:10:38.332Z,100.00
2019-03-27T06:15:44.992Z,100.00
2019-03-27T06:20:46.881Z,100.00
2019-03-27T06:25:49.583Z,100.00
2019-03-27T06:30:52.201Z,100.00
2019-03-27T06:35:55.073Z,100.00
2019-03-27T06:40:57.766Z,100.00
2019-03-27T06:46:00.663Z,100.00
2019-03-27T06:51:03.448Z,100.00
2019-03-27T06:56:06.095Z,100.00
2019-03-27T07:01:08.732Z,100.00
2019-03-27T07:06:11.678Z,100.00
2019-03-27T07:11:14.268Z,100.00
2019-03-27T07:16:19.392Z,100.00
2019-03-27T07:21:22.053Z,100.00
2019-03-27T07:26:27.605Z,100.00
2019-03-27T07:31:30.163Z,100.00
2019-03-27T07:36:33.114Z,100.00
2019-03-27T07:41:36.168Z,100.00
2019-03-27T07:46:38.813Z,100.00
2019-03-27T07:51:42.841Z,100.00
2019-03-27T07:56:45.569Z,100.00
2019-03-27T08:01:51.035Z,100.00
2019-03-27T08:06:55.334Z,100.00
2019-03-27T08:11:58.533Z,100.00
2019-03-27T08:17:03.360Z,100.00
2019-03-27T08:22:08.350Z,100.00
2019-03-27T08:27:15.271Z,100.00
2019-03-27T08:32:17.766Z,100.00
2019-03-27T08:37:20.345Z,100.00
2019-03-27T08:42:23.377Z,100.00
2019-03-27T08:47:28.739Z,100.00
2019-03-27T08:52:31.844Z,100.00
2019-03-27T08:57:34.440Z,100.00
2019-03-27T09:02:40.441Z,100.00
2019-03-27T09:07:43.014Z,100.00
2019-03-27T09:12:52.073Z,100.00
2019-03-27T09:17:56.113Z,100.00
2019-03-27T09:22:59.816Z,100.00
2019-03-27T09:28:07.499Z,100.00
2019-03-27T09:33:10.426Z,100.00
2019-03-27T09:38:12.979Z,100.00
2019-03-27T09:43:17.897Z,100.00
2019-03-27T09:48:20.665Z,100.00
2019-03-27T09:53:24.679Z,100.00
2019-03-27T09:58:29.368Z,100.00
2019-03-27T10:03:34.929Z,100.00
2019-03-27T10:08:37.915Z,100.00
2019-03-27T10:13:41.022Z,100.00
2019-03-27T10:18:43.639Z,100.00
2019-03-27T10:23:49.679Z,100.00
2019-03-27T10:28:52.443Z,100.00
2019-03-27T10:33:55.187Z,100.00
2019-03-27T10:38:57.747Z,100.00
2019-03-27T10:44:00.320Z,100.00
2019-03-27T10:49:02.888Z,100.00
2019-03-27T10:54:07.335Z,100.00
2019-03-27T10:59:13.081Z,100.00
2019-03-27T11:04:16.814Z,100.00
2019-03-27T11:09:19.503Z,100.00
2019-03-27T11:14:22.334Z,100.00
2019-03-27T11:19:25.098Z,100.00
2019-03-27T11:24:28.110Z,98.87
2019-03-27T11:29:30.719Z,95.71
2019-03-27T11:34:36.431Z,100.00
2019-03-27T11:39:39.327Z,100.00
2019-03-27T11:44:42.327Z,100.00
2019-03-27T11:49:47.661Z,100.00
2019-03-27T11:54:52.946Z,100.00
2019-03-27T11:59:57.015Z,100.00
2019-03-27T12:05:01.683Z,100.00
2019-03-27T12:10:05.874Z,100.00
2019-03-27T12:15:09.192Z,100.00
2019-03-27T12:20:13.358Z,100.00
2019-03-27T12:25:16.573Z,97.35
2019-03-27T12:30:21.101Z,93.35
2019-03-27T12:35:25.346Z,97.39
2019-03-27T12:40:28.005Z,91.18
2019-03-27T12:45:31.212Z,95.25
2019-03-27T12:50:35.790Z,96.35
2019-03-27T12:55:38.501Z,96.55
2019-03-27T13:00:41.589Z,100.00
2019-03-27T13:05:50.431Z,99.69
2019-03-27T13:10:54.056Z,97.85
2019-03-27T13:15:56.891Z,96.21
2019-03-27T13:20:59.859Z,98.91
2019-03-27T13:26:02.464Z,100.00
2019-03-27T13:31:06.620Z,100.00
2019-03-27T13:36:12.334Z,98.62
2019-03-27T13:41:15.058Z,96.80
2019-03-27T13:46:17.731Z,100.00
2019-03-27T13:51:20.393Z,98.44
2019-03-27T13:56:23.255Z,100.00
2019-03-27T14:01:25.835Z,97.66
2019-03-27T14:06:28.915Z,94.82
2019-03-27T14:11:31.544Z,97.67
2019-03-27T14:16:34.557Z,94.65
2019-03-27T14:21:37.290Z,96.17
2019-03-27T14:26:45.376Z,96.09
2019-03-27T14:31:44.627Z,92.59
2019-03-27T14:36:47.329Z,95.17
2019-03-27T14:41:51.019Z,91.96
2019-03-27T14:46:56.229Z,93.54
2019-03-27T14:52:08.056Z,92.73
2019-03-27T14:57:03.840Z,99.75
2019-03-27T15:02:09.691Z,94.47
2019-03-27T15:07:12.424Z,98.05
2019-03-27T15:12:17.780Z,95.68
2019-03-27T15:17:20.442Z,94.91
2019-03-27T15:22:23.605Z,95.12
2019-03-27T15:27:26.509Z,90.12
2019-03-27T15:32:29.169Z,96.29
2019-03-27T15:37:31.748Z,94.40
2019-03-27T15:42:36.135Z,93.52
2019-03-27T15:47:38.851Z,96.68
2019-03-27T15:52:41.520Z,94.44
2019-03-27T15:57:44.140Z,96.47
2019-03-27T16:02:52.937Z,97.96
2019-03-27T16:07:56.745Z,98.52
2019-03-27T16:12:59.410Z,96.36
2019-03-27T16:18:02.192Z,95.04
2019-03-27T16:23:07.252Z,95.04
2019-03-27T16:28:09.813Z,95.12
2019-03-27T16:33:12.769Z,95.12
2019-03-27T16:38:15.399Z,94.87
2019-03-27T16:43:18.864Z,93.48
2019-03-27T16:48:21.541Z,93.48
2019-03-27T16:53:24.706Z,97.27
2019-03-27T16:58:27.597Z,97.27
2019-03-27T17:03:30.268Z,95.75
2019-03-27T17:08:32.827Z,98.05
2019-03-27T17:13:35.736Z,100.00
2019-03-27T17:18:38.532Z,99.33
2019-03-27T17:23:41.227Z,98.50
2019-03-27T17:28:43.970Z,100.00
2019-03-27T17:33:46.701Z,100.00
2019-03-27T17:38:49.272Z,100.00
2019-03-27T17:43:52.087Z,100.00
2019-03-27T17:48:54.834Z,100.00
2019-03-27T17:53:57.695Z,100.00
2019-03-27T17:59:00.252Z,100.00
2019-03-27T18:04:02.979Z,100.00
2019-03-27T18:09:07.453Z,100.00
2019-03-27T18:14:10.655Z,100.00
2019-03-27T18:19:14.451Z,100.00
2019-03-27T18:24:17.049Z,100.00
2019-03-27T18:29:22.938Z,100.00
2019-03-27T18:34:30.718Z,100.00
2019-03-27T18:39:33.397Z,100.00
2019-03-27T18:44:36.243Z,100.00
2019-03-27T18:49:40.724Z,100.00
2019-03-27T18:54:43.633Z,100.00
2019-03-27T18:59:47.298Z,100.00
2019-03-27T19:04:50.387Z,100.00
2019-03-27T19:09:53.264Z,100.00
2019-03-27T19:14:56.097Z,100.00
2019-03-27T19:19:58.653Z,100.00
2019-03-27T19:25:01.365Z,100.00
2019-03-27T19:30:05.223Z,100.00
2019-03-27T19:35:08.391Z,100.00
2019-03-27T19:40:11.511Z,100.00
2019-03-27T19:45:14.252Z,100.00
2019-03-27T19:50:18.200Z,100.00
2019-03-27T19:55:20.930Z,100.00
2019-03-27T20:00:23.796Z,100.00
2019-03-27T20:05:31.180Z,100.00
2019-03-27T20:10:35.989Z,100.00
2019-03-27T20:15:38.715Z,100.00
2019-03-27T20:20:41.374Z,100.00
2019-03-27T20:25:46.820Z,100.00
2019-03-27T20:30:49.547Z,100.00
2019-03-27T20:35:52.472Z,100.00
2019-03-27T20:40:55.046Z,100.00
2019-03-27T20:45:58.004Z,100.00
2019-03-27T20:51:01.852Z,100.00
2019-03-27T20:56:04.572Z,100.00
2019-03-27T21:01:08.960Z,100.00
2019-03-27T21:06:11.913Z,100.00
2019-03-27T21:11:14.588Z,100.00
2019-03-27T21:16:18.168Z,100.00
2019-03-27T21:21:22.528Z,100.00
2019-03-27T21:26:25.150Z,100.00
2019-03-27T21:31:27.820Z,100.00
2019-03-27T21:36:33.497Z,100.00
2019-03-27T21:41:36.423Z,100.00
2019-03-27T21:46:39.640Z,100.00
2019-03-27T21:51:42.506Z,100.00
2019-03-27T21:56:45.289Z,100.00
2019-03-27T22:01:47.861Z,100.00
2019-03-27T22:06:50.566Z,100.00
2019-03-27T22:11:56.802Z,100.00
2019-03-27T22:16:59.640Z,100.00
2019-03-27T22:22:02.397Z,100.00
2019-03-27T22:27:05.039Z,100.00
2019-03-27T22:32:10.604Z,100.00
2019-03-27T22:37:13.201Z,100.00
2019-03-27T22:42:15.775Z,100.00
2019-03-27T22:47:21.405Z,100.00
2019-03-27T22:52:24.588Z,100.00
2019-03-27T22:57:29.468Z,100.00
2019-03-27T23:02:35.649Z,100.00
2019-03-27T23:07:38.190Z,100.00
2019-03-27T23:12:41.229Z,100.00
2019-03-27T23:17:43.904Z,100.00
2019-03-27T23:22:49.057Z,100.00
2019-03-27T23:27:51.621Z,100.00
2019-03-27T23:32:54.387Z,100.00
2019-03-27T23:37:57.185Z,100.00
2019-03-27T23:43:01.618Z,100.00
2019-03-27T23:48:04.258Z,100.00
2019-03-27T23:53:07.118Z,100.00
2019-03-27T23:58:09.790Z,100.00
